Time;durP1;ratioP1;P1;durP2;ratioP2;P2;SDS_P1;SDS_P2;PMS_P1;PMS_P2;Temp;Humidity;BMP_temperature;BMP_pressure;BME280_temperature;BME280_humidity;BME280_pressure;Samples;Min_cycle;Max_cycle;Signal;HPM_P1;HPM_P2
2022/04/13 00:01:41;;;;;;;3.25;1.15;;;10.80;80.00;;;;;;4424914;32;20120;-69
2022/04/13 00:04:07;;;;;;;0.70;0.62;;;10.70;79.80;;;;;;4426163;32;20360;-69
2022/04/13 00:06:38;;;;;;;1.20;1.10;;;10.80;80.10;;;;;;4426146;32;20109;-70
2022/04/13 00:09:06;;;;;;;1.87;1.08;;;10.70;79.90;;;;;;4429001;32;20124;-69
2022/04/13 00:11:31;;;;;;;2.37;1.40;;;10.60;80.20;;;;;;4425989;32;20513;-69
2022/04/13 00:13:57;;;;;;;1.12;0.80;;;10.50;80.20;;;;;;4423832;32;20116;-69
2022/04/13 00:16:22;;;;;;;0.90;0.90;;;10.50;80.40;;;;;;4425200;32;20078;-69
2022/04/13 00:18:48;;;;;;;0.88;0.80;;;10.40;80.80;;;;;;4429055;32;20093;-69
2022/04/13 00:21:13;;;;;;;0.77;0.77;;;10.40;80.80;;;;;;4425856;32;20422;-69
2022/04/13 00:23:38;;;;;;;2.05;1.05;;;10.40;81.00;;;;;;4427878;32;20147;-69
2022/04/13 00:26:04;;;;;;;8.55;1.30;;;10.40;81.00;;;;;;4427929;32;20080;-69
2022/04/13 00:28:29;;;;;;;0.50;0.50;;;10.40;81.80;;;;;;4428042;32;20131;-69
2022/04/13 00:30:55;;;;;;;0.60;0.60;;;10.20;81.30;;;;;;4429588;32;20131;-69
2022/04/13 00:33:20;;;;;;;1.30;0.75;;;10.20;81.70;;;;;;4426830;32;20057;-69
2022/04/13 00:35:46;;;;;;;0.80;0.80;;;10.30;81.50;;;;;;4426266;32;20561;-69
2022/04/13 00:38:12;;;;;;;1.75;1.15;;;10.30;82.70;;;;;;4427290;32;20081;-69
2022/04/13 00:40:40;;;;;;;0.95;0.95;;;10.20;82.00;;;;;;4427512;32;20093;-69
2022/04/13 00:43:06;;;;;;;1.35;1.25;;;10.10;82.50;;;;;;4427105;32;20592;-69
2022/04/13 00:45:33;;;;;;;0.70;0.70;;;10.10;83.10;;;;;;4422480;32;20193;-71
2022/04/13 00:48:00;;;;;;;2.58;0.90;;;10.20;83.30;;;;;;4428972;32;20066;-69
2022/04/13 00:50:26;;;;;;;1.98;1.15;;;10.10;83.00;;;;;;4426865;32;20081;-69
2022/04/13 00:52:53;;;;;;;1.27;1.00;;;10.00;83.50;;;;;;4427641;32;20077;-69
2022/04/13 00:55:24;;;;;;;0.70;0.70;;;10.00;83.50;;;;;;4428023;32;20454;-68
2022/04/13 00:57:50;;;;;;;1.75;1.10;;;10.10;83.50;;;;;;4428331;32;20081;-69
2022/04/13 01:00:16;;;;;;;4.53;1.30;;;10.10;83.50;;;;;;4427700;32;20089;-69
2022/04/13 01:02:42;;;;;;;1.58;1.05;;;9.90;83.60;;;;;;4424585;32;20549;-69
2022/04/13 01:05:08;;;;;;;1.20;1.05;;;9.90;84.40;;;;;;4425450;32;20637;-68
2022/04/13 01:07:35;;;;;;;1.30;1.20;;;9.80;84.90;;;;;;4427725;32;20112;-68
2022/04/13 01:10:05;;;;;;;2.20;1.80;;;9.80;85.40;;;;;;4416369;32;20133;-69
2022/04/13 01:12:32;;;;;;;2.20;1.30;;;9.80;85.70;;;;;;4425971;32;20085;-68
2022/04/13 01:14:57;;;;;;;1.95;0.98;;;9.70;85.70;;;;;;4424286;32;20094;-69
2022/04/13 01:17:23;;;;;;;1.17;0.85;;;9.70;85.50;;;;;;4426456;32;20074;-69
2022/04/13 01:19:49;;;;;;;0.95;0.90;;;9.70;85.40;;;;;;4425635;32;20073;-69
2022/04/13 01:22:20;;;;;;;5.95;0.85;;;9.70;85.50;;;;;;4427042;32;20078;-69
2022/04/13 01:24:46;;;;;;;3.37;1.08;;;9.70;85.80;;;;;;4425874;32;20077;-68
2022/04/13 01:27:14;;;;;;;1.55;1.30;;;9.60;86.30;;;;;;4428349;32;20073;-69
2022/04/13 01:29:39;;;;;;;0.60;0.60;;;9.60;86.00;;;;;;4428821;32;20329;-69
2022/04/13 01:32:05;;;;;;;4.40;1.98;;;9.60;86.20;;;;;;4428516;32;20077;-69
2022/04/13 01:34:30;;;;;;;1.27;1.15;;;9.60;86.60;;;;;;4428756;32;20101;-69
2022/04/13 01:36:56;;;;;;;2.58;1.17;;;9.60;86.30;;;;;;4430918;32;20084;-69
2022/04/13 01:39:21;;;;;;;2.03;0.70;;;9.50;86.70;;;;;;4425312;32;20093;-69
2022/04/13 01:41:48;;;;;;;2.37;1.25;;;9.50;86.80;;;;;;4424741;32;20085;-69
2022/04/13 01:44:15;;;;;;;1.20;0.98;;;9.40;87.30;;;;;;4427619;32;20441;-69
2022/04/13 01:46:41;;;;;;;3.80;1.85;;;9.40;87.50;;;;;;4428287;32;20126;-69
2022/04/13 01:49:06;;;;;;;5.68;1.98;;;9.30;87.90;;;;;;4429171;32;20073;-69
2022/04/13 01:51:32;;;;;;;0.50;0.50;;;9.40;87.90;;;;;;4432111;32;20098;-70
2022/04/13 01:53:57;;;;;;;0.50;0.50;;;9.40;87.90;;;;;;4428777;32;20094;-69
2022/04/13 01:56:23;;;;;;;1.40;1.30;;;9.40;88.70;;;;;;4428758;32;20475;-69
2022/04/13 01:58:48;;;;;;;0.88;0.85;;;9.40;87.90;;;;;;4427240;32;20085;-70
2022/04/13 02:01:13;;;;;;;1.48;1.37;;;9.40;88.80;;;;;;4428055;32;20066;-69
2022/04/13 02:03:40;;;;;;;0.60;0.60;;;9.30;88.50;;;;;;4430269;32;20525;-69
2022/04/13 02:06:05;;;;;;;0.82;0.75;;;9.20;88.90;;;;;;4429490;32;20452;-69
2022/04/13 02:08:31;;;;;;;0.80;0.80;;;9.30;88.70;;;;;;4426485;32;20077;-69
2022/04/13 02:10:57;;;;;;;1.27;1.05;;;9.30;88.90;;;;;;4426510;32;20422;-69
2022/04/13 02:13:22;;;;;;;0.43;0.43;;;9.20;89.10;;;;;;4427227;32;20598;-69
2022/04/13 02:15:49;;;;;;;0.52;0.52;;;9.20;89.20;;;;;;4426236;32;20084;-69
2022/04/13 02:18:16;;;;;;;1.95;1.35;;;9.20;89.80;;;;;;4426172;32;20066;-70
2022/04/13 02:20:41;;;;;;;2.00;0.90;;;9.10;89.80;;;;;;4428942;32;20173;-69
2022/04/13 02:23:07;;;;;;;1.02;0.93;;;9.10;90.00;;;;;;4431282;32;20775;-69
2022/04/13 02:25:35;;;;;;;1.77;1.05;;;9.10;90.10;;;;;;4428003;32;20065;-69
2022/04/13 02:28:02;;;;;;;4.45;1.00;;;9.00;90.20;;;;;;4427132;32;20081;-69
2022/04/13 02:30:28;;;;;;;0.68;0.55;;;8.90;90.50;;;;;;4427162;32;20150;-69
2022/04/13 02:32:53;;;;;;;1.10;0.65;;;8.90;90.60;;;;;;4428491;32;20734;-69
2022/04/13 02:35:19;;;;;;;5.50;1.98;;;9.00;90.60;;;;;;4426890;32;20086;-69
2022/04/13 02:37:44;;;;;;;1.87;1.45;;;9.00;90.60;;;;;;4428100;32;20078;-69
2022/04/13 02:40:16;;;;;;;3.40;1.58;;;8.90;90.70;;;;;;4427403;32;20065;-69
2022/04/13 02:42:42;;;;;;;1.40;1.02;;;8.90;90.90;;;;;;4430246;32;20073;-69
2022/04/13 02:45:08;;;;;;;1.75;1.00;;;8.90;90.80;;;;;;4429123;32;20433;-69
2022/04/13 02:47:35;;;;;;;1.27;1.10;;;8.90;91.10;;;;;;4429308;32;20101;-69
2022/04/13 02:50:00;;;;;;;13.68;2.35;;;8.80;91.30;;;;;;4429642;32;20065;-69
2022/04/13 02:52:28;;;;;;;3.83;1.58;;;8.80;91.40;;;;;;4430495;32;20069;-69
2022/04/13 02:54:55;;;;;;;0.75;0.75;;;8.80;91.50;;;;;;4427519;32;20203;-69
2022/04/13 02:57:21;;;;;;;0.68;0.68;;;8.90;91.40;;;;;;4426521;32;20097;-69
2022/04/13 02:59:48;;;;;;;1.23;1.00;;;8.90;91.40;;;;;;4429681;32;20073;-69
2022/04/13 03:02:14;;;;;;;0.82;0.82;;;8.90;91.50;;;;;;4429289;32;20536;-69
2022/04/13 03:04:43;;;;;;;1.48;1.05;;;8.80;91.90;;;;;;4426724;32;20073;-69
2022/04/13 03:07:11;;;;;;;1.02;0.98;;;8.60;91.90;;;;;;4429271;32;20082;-69
2022/04/13 03:09:38;;;;;;;0.85;0.68;;;8.60;92.20;;;;;;4425935;32;20081;-69
2022/04/13 03:12:06;;;;;;;3.58;1.73;;;8.60;92.10;;;;;;4428558;32;20530;-69
2022/04/13 03:14:31;;;;;;;0.85;0.85;;;8.70;92.20;;;;;;4427810;32;20077;-69
2022/04/13 03:16:57;;;;;;;3.75;1.10;;;8.60;92.40;;;;;;4429717;32;20077;-69
2022/04/13 03:19:22;;;;;;;1.52;1.00;;;8.60;92.30;;;;;;4430225;32;20123;-69
2022/04/13 03:21:51;;;;;;;8.75;2.85;;;8.70;92.30;;;;;;4428433;32;20085;-69
2022/04/13 03:24:17;;;;;;;0.68;0.68;;;8.70;92.50;;;;;;4427374;32;20438;-69
2022/04/13 03:26:43;;;;;;;4.85;1.15;;;8.60;92.30;;;;;;4424945;32;20509;-69
2022/04/13 03:29:09;;;;;;;1.90;1.50;;;8.60;92.60;;;;;;4426890;32;20140;-69
2022/04/13 03:31:35;;;;;;;0.60;0.60;;;8.60;92.80;;;;;;4428871;32;20452;-69
2022/04/13 03:34:00;;;;;;;2.97;0.90;;;8.50;93.00;;;;;;4427867;32;20102;-69
2022/04/13 03:36:26;;;;;;;0.95;0.93;;;8.60;92.90;;;;;;4430010;32;20508;-69
2022/04/13 03:38:51;;;;;;;2.08;1.20;;;8.60;92.90;;;;;;4427756;32;20069;-69
2022/04/13 03:41:17;;;;;;;1.20;0.93;;;8.50;92.90;;;;;;4426714;32;20072;-69
2022/04/13 03:43:43;;;;;;;1.08;0.70;;;8.50;93.00;;;;;;4421356;32;20069;-69
2022/04/13 03:46:08;;;;;;;1.50;1.08;;;8.40;93.20;;;;;;4427733;32;20097;-69
2022/04/13 03:48:34;;;;;;;0.70;0.70;;;8.30;93.50;;;;;;4428864;32;20061;-69
2022/04/13 03:51:00;;;;;;;0.90;0.88;;;8.30;93.60;;;;;;4429060;32;20085;-68
2022/04/13 03:53:26;;;;;;;4.22;0.90;;;8.30;93.70;;;;;;4429113;32;20111;-69
2022/04/13 03:55:51;;;;;;;3.95;0.88;;;8.30;93.70;;;;;;4426300;32;20598;-69
2022/04/13 03:58:17;;;;;;;0.95;0.90;;;8.20;94.50;;;;;;4427098;32;20105;-69
2022/04/13 04:00:43;;;;;;;1.33;1.15;;;8.20;94.30;;;;;;4427304;32;20078;-68
2022/04/13 04:03:09;;;;;;;1.55;1.25;;;8.20;94.20;;;;;;4427502;32;20065;-69
2022/04/13 04:05:34;;;;;;;1.77;1.33;;;8.10;94.40;;;;;;4427462;32;20072;-69
2022/04/13 04:08:00;;;;;;;8.27;1.58;;;8.10;94.50;;;;;;4427900;32;20077;-69
2022/04/13 04:10:25;;;;;;;0.77;0.75;;;8.10;94.60;;;;;;4423730;32;20085;-70
2022/04/13 04:12:51;;;;;;;0.50;0.50;;;8.10;94.80;;;;;;4428798;32;20213;-69
2022/04/13 04:15:16;;;;;;;4.43;1.17;;;8.10;94.90;;;;;;4427740;32;21395;-69
2022/04/13 04:17:42;;;;;;;2.08;1.10;;;8.10;95.00;;;;;;4428589;32;20116;-69
2022/04/13 04:20:08;;;;;;;0.95;0.95;;;8.10;95.10;;;;;;4428592;32;20145;-69
2022/04/13 04:22:35;;;;;;;1.02;0.93;;;8.20;94.90;;;;;;4429398;32;20447;-69
2022/04/13 04:25:03;;;;;;;0.60;0.60;;;8.10;94.80;;;;;;4425353;32;20065;-69
2022/04/13 04:27:29;;;;;;;2.87;1.73;;;8.00;95.00;;;;;;4427069;32;20065;-69
2022/04/13 04:29:54;;;;;;;0.60;0.60;;;8.10;95.30;;;;;;4426880;32;20142;-70
2022/04/13 04:32:19;;;;;;;2.25;1.27;;;8.10;95.30;;;;;;4428271;32;20069;-69
2022/04/13 04:34:45;;;;;;;3.05;1.33;;;8.10;95.20;;;;;;4427538;32;20123;-70
2022/04/13 04:37:10;;;;;;;4.97;0.85;;;8.10;95.10;;;;;;4427325;32;20061;-69
2022/04/13 04:39:36;;;;;;;0.82;0.82;;;8.10;95.40;;;;;;4426114;32;20089;-69
2022/04/13 04:42:04;;;;;;;0.80;0.80;;;8.10;95.40;;;;;;4426707;32;20077;-69
2022/04/13 04:44:29;;;;;;;0.98;0.93;;;8.00;95.80;;;;;;4426737;32;20395;-69
2022/04/13 04:46:55;;;;;;;0.95;0.95;;;7.90;95.90;;;;;;4428643;32;20069;-69
2022/04/13 04:49:20;;;;;;;8.30;1.65;;;7.90;96.40;;;;;;4425730;32;20066;-69
2022/04/13 04:51:46;;;;;;;0.80;0.80;;;7.90;96.00;;;;;;4426885;32;20077;-69
2022/04/13 04:54:11;;;;;;;0.82;0.80;;;8.00;95.90;;;;;;4427678;32;20445;-70
2022/04/13 04:56:37;;;;;;;1.85;1.20;;;8.00;96.00;;;;;;4424568;32;20069;-69
2022/04/13 04:59:03;;;;;;;0.47;0.47;;;8.10;95.80;;;;;;4424682;32;20073;-69
2022/04/13 05:01:29;;;;;;;2.67;1.67;;;8.00;96.00;;;;;;4419473;32;20132;-69
2022/04/13 05:03:54;;;;;;;1.40;1.27;;;8.00;96.20;;;;;;4422288;32;20476;-69
2022/04/13 05:06:22;;;;;;;20.23;2.15;;;8.10;96.10;;;;;;4423954;32;20073;-68
2022/04/13 05:08:49;;;;;;;1.17;1.08;;;8.10;96.30;;;;;;4430293;32;20081;-69
2022/04/13 05:11:15;;;;;;;1.50;1.40;;;8.00;96.40;;;;;;4428447;32;21050;-69
2022/04/13 05:13:41;;;;;;;0.60;0.60;;;8.00;96.60;;;;;;4420337;32;20128;-69
2022/04/13 05:16:06;;;;;;;18.08;1.90;;;8.00;96.70;;;;;;4424699;32;20053;-69
2022/04/13 05:18:32;;;;;;;0.68;0.68;;;8.00;96.70;;;;;;4422457;32;20120;-69
2022/04/13 05:20:58;;;;;;;13.00;1.35;;;8.10;96.60;;;;;;4428773;32;20096;-69
2022/04/13 05:23:24;;;;;;;1.90;0.98;;;8.10;96.60;;;;;;4429583;32;20450;-69
2022/04/13 05:25:49;;;;;;;0.50;0.50;;;8.20;97.10;;;;;;4426207;32;20074;-69
2022/04/13 05:28:16;;;;;;;1.45;1.08;;;8.40;96.40;;;;;;4429226;32;20131;-69
2022/04/13 05:30:41;;;;;;;6.45;3.12;;;8.40;96.60;;;;;;4425623;32;20065;-69
2022/04/13 05:33:07;;;;;;;5.12;1.77;;;8.40;96.40;;;;;;4427503;32;20532;-69
2022/04/13 05:35:32;;;;;;;1.02;0.70;;;8.30;96.50;;;;;;4430651;32;20425;-69
2022/04/13 05:37:59;;;;;;;1.52;1.37;;;8.30;96.80;;;;;;4430245;32;20066;-69
2022/04/13 05:40:25;;;;;;;0.82;0.75;;;8.30;96.70;;;;;;4430950;32;20060;-69
2022/04/13 05:42:51;;;;;;;0.80;0.70;;;8.40;96.70;;;;;;4426217;32;20094;-69
2022/04/13 05:45:17;;;;;;;0.57;0.57;;;8.50;96.40;;;;;;4430805;32;20119;-69
2022/04/13 05:47:43;;;;;;;2.65;1.45;;;8.60;96.50;;;;;;4431496;32;20460;-69
2022/04/13 05:50:10;;;;;;;0.77;0.77;;;8.70;96.60;;;;;;4432587;32;20077;-68
2022/04/13 05:52:36;;;;;;;0.75;0.75;;;8.80;96.00;;;;;;4430888;32;20081;-69
2022/04/13 05:55:02;;;;;;;1.80;0.85;;;8.70;96.20;;;;;;4430804;32;20072;-70
2022/04/13 05:57:27;;;;;;;1.17;1.05;;;8.80;96.10;;;;;;4430961;32;20081;-69
2022/04/13 05:59:53;;;;;;;3.25;0.95;;;8.90;95.80;;;;;;4427753;32;20085;-69
2022/04/13 06:02:19;;;;;;;0.45;0.45;;;9.00;96.20;;;;;;4424799;32;20077;-69
2022/04/13 06:04:44;;;;;;;0.75;0.75;;;9.00;95.70;;;;;;4430304;32;20078;-69
2022/04/13 06:07:10;;;;;;;2.12;1.45;;;9.20;95.60;;;;;;4430388;32;20070;-69
2022/04/13 06:09:35;;;;;;;1.98;0.85;;;9.40;95.30;;;;;;4427512;32;20068;-69
2022/04/13 06:12:01;;;;;;;4.68;1.23;;;9.40;94.90;;;;;;4425734;32;20077;-70
2022/04/13 06:14:26;;;;;;;2.60;1.10;;;9.40;95.00;;;;;;4427916;32;20065;-69
2022/04/13 06:16:52;;;;;;;1.05;0.80;;;9.60;94.80;;;;;;4430427;32;20127;-69
2022/04/13 06:19:17;;;;;;;0.93;0.88;;;9.80;94.50;;;;;;4429506;32;20082;-69
2022/04/13 06:21:43;;;;;;;0.80;0.80;;;9.80;94.50;;;;;;4430982;32;20631;-69
2022/04/13 06:24:09;;;;;;;0.90;0.90;;;9.90;94.30;;;;;;4428437;32;20073;-69
2022/04/13 06:26:34;;;;;;;1.23;0.90;;;10.10;94.60;;;;;;4429355;32;20102;-70
2022/04/13 06:29:00;;;;;;;0.80;0.80;;;10.10;93.80;;;;;;4430368;32;20116;-70
2022/04/13 06:31:25;;;;;;;0.50;0.50;;;10.20;93.70;;;;;;4424034;32;20536;-69
2022/04/13 06:33:52;;;;;;;1.77;1.12;;;10.40;93.50;;;;;;4431218;32;20064;-70
2022/04/13 06:36:18;;;;;;;1.08;1.00;;;10.40;93.20;;;;;;4430579;32;20087;-70
2022/04/13 06:38:43;;;;;;;0.73;0.62;;;10.50;93.30;;;;;;4430970;32;20076;-69
2022/04/13 06:41:11;;;;;;;0.82;0.82;;;10.60;93.30;;;;;;4429206;32;20407;-69
2022/04/13 06:43:36;;;;;;;2.03;1.30;;;10.80;93.00;;;;;;4423103;32;20077;-69
2022/04/13 06:46:02;;;;;;;0.60;0.60;;;10.80;92.60;;;;;;4429042;32;20089;-69
2022/04/13 06:48:27;;;;;;;5.62;1.65;;;10.90;92.40;;;;;;4427974;32;20080;-69
2022/04/13 06:50:53;;;;;;;0.70;0.70;;;10.80;92.40;;;;;;4429906;32;20488;-68
2022/04/13 06:53:18;;;;;;;1.40;1.30;;;10.80;92.60;;;;;;4429521;32;20078;-68
2022/04/13 06:55:47;;;;;;;0.62;0.62;;;10.80;93.00;;;;;;4428382;32;20171;-69
2022/04/13 06:58:13;;;;;;;1.85;1.05;;;11.00;92.40;;;;;;4428109;32;20069;-69
2022/04/13 07:00:39;;;;;;;1.98;1.50;;;11.20;92.10;;;;;;4426227;32;20077;-68
2022/04/13 07:03:04;;;;;;;25.90;1.55;;;11.20;91.90;;;;;;4430814;32;20081;-68
2022/04/13 07:05:30;;;;;;;1.87;1.10;;;11.20;91.90;;;;;;4430698;32;20096;-68
2022/04/13 07:07:56;;;;;;;1.48;1.20;;;11.20;92.00;;;;;;4429841;32;20057;-69
2022/04/13 07:10:22;;;;;;;0.77;0.75;;;11.30;92.00;;;;;;4428781;32;20114;-69
2022/04/13 07:12:47;;;;;;;1.35;1.25;;;11.40;91.70;;;;;;4423791;32;20097;-69
2022/04/13 07:15:17;;;;;;;2.47;0.73;;;11.60;91.60;;;;;;4429213;32;20081;-69
2022/04/13 07:17:43;;;;;;;1.12;0.98;;;11.50;91.40;;;;;;4425827;32;20112;-69
2022/04/13 07:20:09;;;;;;;8.02;0.93;;;11.70;91.60;;;;;;4429271;32;20639;-69
2022/04/13 07:22:43;;;;;;;6.12;2.35;;;11.80;91.10;;;;;;4431240;32;20069;-70
2022/04/13 07:25:09;;;;;;;0.60;0.60;;;11.70;91.20;;;;;;4426355;32;20527;-68
2022/04/13 07:27:35;;;;;;;3.58;1.02;;;11.80;91.10;;;;;;4430068;32;20082;-69
2022/04/13 07:30:00;;;;;;;1.12;0.90;;;11.80;90.80;;;;;;4427292;32;20456;-69
2022/04/13 07:32:25;;;;;;;1.05;0.95;;;11.80;90.80;;;;;;4424211;32;20082;-69
2022/04/13 07:34:51;;;;;;;1.20;0.80;;;11.80;91.10;;;;;;4426845;32;108393;-70
2022/04/13 07:37:16;;;;;;;2.40;1.58;;;11.90;91.10;;;;;;4429957;32;20404;-68
2022/04/13 07:39:43;;;;;;;2.50;1.05;;;11.90;91.40;;;;;;4429898;32;20057;-69
2022/04/13 07:42:08;;;;;;;1.15;1.08;;;12.10;90.90;;;;;;4425888;32;20149;-68
2022/04/13 07:44:34;;;;;;;1.50;1.02;;;12.30;90.90;;;;;;4425742;32;20105;-69
2022/04/13 07:46:59;;;;;;;1.02;0.95;;;12.40;90.80;;;;;;4429644;32;20061;-69
2022/04/13 07:49:25;;;;;;;1.23;0.98;;;12.60;90.70;;;;;;4430316;32;20351;-69
2022/04/13 07:51:50;;;;;;;0.98;0.90;;;12.80;89.80;;;;;;4429906;32;20066;-69
2022/04/13 07:54:16;;;;;;;2.03;1.27;;;12.80;89.10;;;;;;4429303;32;20093;-69
2022/04/13 07:56:41;;;;;;;0.43;0.43;;;12.80;89.30;;;;;;4428870;32;20077;-69
2022/04/13 07:59:07;;;;;;;0.62;0.62;;;12.90;89.60;;;;;;4429751;32;20081;-69
2022/04/13 08:01:32;;;;;;;1.08;0.95;;;13.00;88.90;;;;;;4423184;32;20457;-69
2022/04/13 08:03:58;;;;;;;4.28;1.58;;;13.10;89.00;;;;;;4429389;32;20092;-69
2022/04/13 08:06:23;;;;;;;3.85;1.42;;;13.20;88.90;;;;;;4430287;32;20136;-69
2022/04/13 08:08:49;;;;;;;1.37;0.90;;;13.40;88.70;;;;;;4428603;32;20069;-69
2022/04/13 08:11:14;;;;;;;3.87;1.77;;;13.50;88.10;;;;;;4429613;32;20077;-69
2022/04/13 08:13:40;;;;;;;2.28;1.12;;;13.70;88.00;;;;;;4423707;32;20065;-69
2022/04/13 08:16:05;;;;;;;1.30;0.80;;;13.80;86.90;;;;;;4424300;32;20473;-69
2022/04/13 08:18:31;;;;;;;0.95;0.88;;;13.70;86.70;;;;;;4429061;32;20085;-70
2022/04/13 08:20:56;;;;;;;11.90;2.08;;;13.90;87.20;;;;;;4431648;32;20146;-69
2022/04/13 08:23:22;;;;;;;2.75;1.42;;;13.90;86.80;;;;;;4426024;32;20120;-69
2022/04/13 08:25:47;;;;;;;0.60;0.60;;;13.80;86.30;;;;;;4428388;32;20399;-69
2022/04/13 08:28:13;;;;;;;0.98;0.95;;;13.90;87.10;;;;;;4430599;32;20177;-70
2022/04/13 08:30:38;;;;;;;0.50;0.50;;;14.00;87.70;;;;;;4423837;32;20093;-69
2022/04/13 08:33:04;;;;;;;5.10;1.67;;;14.10;86.00;;;;;;4429890;32;20117;-69
2022/04/13 08:35:29;;;;;;;1.35;0.98;;;14.20;86.40;;;;;;4430759;32;20147;-69
2022/04/13 08:37:55;;;;;;;3.53;2.25;;;14.50;85.90;;;;;;4432435;32;20065;-69
2022/04/13 08:40:21;;;;;;;2.47;1.27;;;14.60;85.80;;;;;;4431761;32;20077;-69
2022/04/13 08:43:09;;;;;;;5.28;1.45;;;14.50;83.80;;;;;;4425246;32;20061;-69
2022/04/13 08:45:42;;;;;;;1.77;0.93;;;14.40;84.60;;;;;;4426184;32;20057;-70
2022/04/13 08:48:11;;;;;;;3.33;1.48;;;14.60;84.90;;;;;;4431637;32;20471;-70
2022/04/13 08:50:37;;;;;;;7.90;2.03;;;14.70;84.30;;;;;;4433565;32;20078;-70
2022/04/13 08:53:09;;;;;;;0.70;0.70;;;14.80;84.40;;;;;;4432487;32;20106;-69
2022/04/13 08:55:35;;;;;;;2.85;1.58;;;15.00;84.80;;;;;;4429615;32;20195;-69
2022/04/13 08:58:03;;;;;;;1.30;1.20;;;15.00;82.30;;;;;;4432403;32;20126;-69
2022/04/13 09:00:33;;;;;;;1.80;0.60;;;15.00;82.70;;;;;;4429577;32;20070;-69
2022/04/13 09:03:23;;;;;;;1.40;1.20;;;15.20;83.40;;;;;;4431324;32;20065;-69
2022/04/13 09:05:51;;;;;;;2.05;1.12;;;15.40;83.40;;;;;;4429033;32;20074;-69
2022/04/13 09:08:22;;;;;;;5.70;1.20;;;15.70;82.70;;;;;;4428191;32;20556;-69
2022/04/13 09:10:49;;;;;;;4.37;1.70;;;16.10;83.10;;;;;;4430253;32;20124;-70
2022/04/13 09:13:16;;;;;;;27.92;3.45;;;16.00;81.20;;;;;;4420701;32;20098;-70
2022/04/13 09:15:42;;;;;;;1.20;1.08;;;16.20;81.60;;;;;;4434331;32;20054;-70
2022/04/13 09:18:08;;;;;;;1.40;0.95;;;16.50;82.80;;;;;;4433147;32;20077;-70
2022/04/13 09:20:35;;;;;;;1.08;1.00;;;16.60;80.00;;;;;;4435088;32;20084;-70
2022/04/13 09:23:02;;;;;;;1.02;0.85;;;16.70;79.10;;;;;;4433828;32;20526;-70
2022/04/13 09:25:31;;;;;;;1.62;1.05;;;16.70;79.30;;;;;;4435825;32;20148;-70
2022/04/13 09:27:59;;;;;;;3.03;1.20;;;16.70;79.20;;;;;;4433862;32;20090;-69
2022/04/13 09:30:24;;;;;;;0.95;0.73;;;16.80;79.50;;;;;;4428503;32;20907;-68
2022/04/13 09:32:50;;;;;;;0.70;0.65;;;16.80;78.80;;;;;;4429739;32;20074;-70
2022/04/13 09:35:17;;;;;;;2.85;1.23;;;16.90;77.50;;;;;;4432824;32;20425;-69
2022/04/13 09:37:43;;;;;;;1.30;1.20;;;17.00;80.40;;;;;;4431903;32;20589;-70
2022/04/13 09:40:09;;;;;;;0.50;0.50;;;17.30;79.30;;;;;;4432208;32;20119;-70
2022/04/13 09:42:36;;;;;;;0.40;0.40;;;17.50;78.50;;;;;;4425663;32;20427;-69
2022/04/13 09:45:02;;;;;;;18.33;3.03;;;17.40;77.10;;;;;;4431872;32;20091;-69
2022/04/13 09:47:33;;;;;;;1.77;1.20;;;17.60;77.70;;;;;;4431839;32;20204;-69
2022/04/13 09:49:59;;;;;;;1.60;0.93;;;17.60;76.60;;;;;;4434423;32;20057;-69
2022/04/13 09:52:43;;;;;;;1.10;1.00;;;17.80;78.00;;;;;;4425596;32;20174;-69
2022/04/13 09:55:09;;;;;;;3.90;1.55;;;18.00;76.60;;;;;;4424324;32;20085;-69
2022/04/13 09:57:35;;;;;;;6.18;1.55;;;18.10;76.60;;;;;;4424145;32;20081;-69
2022/04/13 10:00:04;;;;;;;4.25;1.08;;;18.30;76.20;;;;;;4431774;32;20093;-69
2022/04/13 10:02:34;;;;;;;7.87;1.95;;;18.30;75.80;;;;;;4429168;32;20096;-69
2022/04/13 10:05:00;;;;;;;0.75;0.75;;;18.50;76.50;;;;;;4434361;32;20058;-69
2022/04/13 10:07:26;;;;;;;1.25;1.10;;;18.70;73.80;;;;;;4425239;32;20085;-69
2022/04/13 10:09:51;;;;;;;3.62;1.08;;;19.00;79.00;;;;;;4428764;32;20085;-69
2022/04/13 10:12:17;;;;;;;1.62;0.98;;;18.90;74.00;;;;;;4428013;32;20101;-69
2022/04/13 10:14:43;;;;;;;5.18;1.25;;;18.90;72.70;;;;;;4424734;32;20553;-69
2022/04/13 10:17:12;;;;;;;1.20;1.00;;;18.60;72.60;;;;;;4432431;32;20077;-69
2022/04/13 10:19:39;;;;;;;0.52;0.52;;;18.30;73.60;;;;;;4427983;32;20860;-69
2022/04/13 10:22:05;;;;;;;0.75;0.75;;;18.50;73.80;;;;;;4435234;32;20089;-69
2022/04/13 10:24:35;;;;;;;1.30;0.95;;;18.80;73.50;;;;;;4433429;32;20070;-69
2022/04/13 10:27:02;;;;;;;;;;;19.00;74.30;;;;;;4434215;32;20106;-70
2022/04/13 10:29:28;;;;;;;1.40;0.80;;;19.10;72.60;;;;;;4433962;32;19952;-69
2022/04/13 10:32:12;;;;;;;0.60;0.60;;;19.10;72.90;;;;;;4429809;32;20074;-70
2022/04/13 10:34:40;;;;;;;2.55;1.00;;;19.40;73.20;;;;;;4434283;32;20134;-69
2022/04/13 10:37:07;;;;;;;0.60;0.60;;;19.60;71.70;;;;;;4432916;32;20102;-69
2022/04/13 10:39:33;;;;;;;2.28;0.90;;;20.00;69.60;;;;;;4428696;32;20069;-69
2022/04/13 10:42:02;;;;;;;4.20;0.93;;;20.00;68.80;;;;;;4422727;32;20065;-69
2022/04/13 10:44:37;;;;;;;4.53;1.25;;;20.20;71.00;;;;;;4425037;32;20132;-69
2022/04/13 10:47:06;;;;;;;0.90;0.90;;;20.60;69.90;;;;;;4435963;32;20045;-69
2022/04/13 10:49:44;;;;;;;0.95;0.90;;;21.10;69.00;;;;;;4426963;32;20074;-69
2022/04/13 10:52:14;;;;;;;1.42;0.85;;;21.10;67.50;;;;;;4434259;32;20177;-70
2022/04/13 10:54:48;;;;;;;42.78;1.40;;;21.20;67.10;;;;;;4432298;32;20084;-70
2022/04/13 10:57:19;;;;;;;0.45;0.45;;;21.30;67.50;;;;;;4434840;32;20085;-70
2022/04/13 10:59:51;;;;;;;2.28;1.02;;;21.40;67.60;;;;;;4433460;32;20074;-68
2022/04/13 11:02:30;;;;;;;0.88;0.88;;;21.20;66.80;;;;;;4428748;32;20057;-69
2022/04/13 11:04:56;;;;;;;0.80;0.50;;;21.40;66.90;;;;;;4432829;32;20069;-69
2022/04/13 11:07:24;;;;;;;3.33;0.75;;;21.60;65.80;;;;;;4431084;32;20101;-69
2022/04/13 11:09:55;;;;;;;1.12;0.80;;;21.80;67.80;;;;;;4432199;32;20078;-69
2022/04/13 11:12:21;;;;;;;0.73;0.70;;;22.10;64.90;;;;;;4427854;32;20137;-69
2022/04/13 11:14:53;;;;;;;0.85;0.85;;;22.30;67.50;;;;;;4432409;32;20082;-68
2022/04/13 11:17:21;;;;;;;5.32;1.15;;;22.50;64.40;;;;;;4428776;32;20061;-69
2022/04/13 11:19:48;;;;;;;1.37;0.98;;;22.80;63.40;;;;;;4433317;32;20064;-69
2022/04/13 11:22:17;;;;;;;0.50;0.50;;;23.10;61.90;;;;;;4433198;32;20070;-69
2022/04/13 11:24:56;;;;;;;1.15;0.60;;;23.30;62.40;;;;;;4427498;32;20062;-69
2022/04/13 11:27:23;;;;;;;0.50;0.50;;;23.30;62.30;;;;;;4434425;32;20078;-69
2022/04/13 11:30:05;;;;;;;2.30;1.23;;;23.70;60.10;;;;;;4433375;32;20065;-69
2022/04/13 11:32:36;;;;;;;4.12;1.08;;;23.80;60.60;;;;;;4427867;32;20078;-69
2022/04/13 11:35:03;;;;;;;1.65;0.93;;;23.60;59.90;;;;;;4434781;32;20419;-68
2022/04/13 11:37:38;;;;;;;1.67;0.88;;;23.60;61.60;;;;;;4433495;32;20077;-68
2022/04/13 11:40:07;;;;;;;0.52;0.52;;;23.70;59.60;;;;;;4430534;32;20061;-69
2022/04/13 11:42:38;;;;;;;0.62;0.57;;;23.90;60.10;;;;;;4428126;32;20115;-69
2022/04/13 11:45:09;;;;;;;2.22;1.37;;;24.20;59.30;;;;;;4435727;32;20406;-69
2022/04/13 11:47:39;;;;;;;0.50;0.50;;;24.00;60.90;;;;;;4432084;32;20069;-69
2022/04/13 11:50:19;;;;;;;0.55;0.55;;;23.60;59.50;;;;;;4434621;32;20077;-68
2022/04/13 11:52:48;;;;;;;;;;;23.50;60.00;;;;;;4424228;32;20172;-69
2022/04/13 11:55:20;;;;;;;0.52;0.52;;;23.50;59.80;;;;;;4434781;32;20012;-70
2022/04/13 11:57:51;;;;;;;0.95;0.93;;;23.60;60.20;;;;;;4433118;32;20049;-69
2022/04/13 12:00:41;;;;;;;0.65;0.60;;;23.60;60.10;;;;;;4429744;32;20053;-70
2022/04/13 12:03:30;;;;;;;4.90;1.10;;;23.40;60.00;;;;;;4424311;32;20153;-70
2022/04/13 12:06:01;;;;;;;3.67;1.35;;;24.00;59.10;;;;;;4425115;32;20120;-68
2022/04/13 12:08:32;;;;;;;1.08;0.50;;;24.30;59.20;;;;;;4429483;32;20061;-69
2022/04/13 12:11:00;;;;;;;1.20;0.65;;;24.80;58.90;;;;;;4422714;32;20584;-70
2022/04/13 12:13:32;;;;;;;0.80;0.80;;;25.00;57.50;;;;;;4425502;32;20080;-70
2022/04/13 12:15:59;;;;;;;0.43;0.43;;;24.90;57.60;;;;;;4433024;32;20081;-69
2022/04/13 12:18:25;;;;;;;0.65;0.40;;;25.00;56.80;;;;;;4431116;32;20078;-69
2022/04/13 12:20:53;;;;;;;3.90;0.60;;;25.50;57.10;;;;;;4432722;32;20073;-69
2022/04/13 12:23:21;;;;;;;4.78;1.65;;;25.70;55.60;;;;;;4433484;32;20078;-69
2022/04/13 12:25:48;;;;;;;2.28;1.27;;;25.30;55.70;;;;;;4430622;32;20077;-70
2022/04/13 12:28:15;;;;;;;1.90;1.35;;;25.50;56.30;;;;;;4431908;32;20149;-70
2022/04/13 12:30:41;;;;;;;2.65;0.60;;;25.70;55.10;;;;;;4421809;32;20443;-70
2022/04/13 12:33:21;;;;;;;1.55;0.35;;;26.40;54.60;;;;;;4429937;32;20089;-71
2022/04/13 12:35:47;;;;;;;;;;;26.90;53.40;;;;;;4427322;32;20469;-69
2022/04/13 12:38:28;;;;;;;0.45;0.40;;;26.90;53.20;;;;;;4429074;32;19960;-69
2022/04/13 12:41:03;;;;;;;0.65;0.65;;;26.00;54.70;;;;;;4434289;32;20050;-69
2022/04/13 12:43:37;;;;;;;2.45;0.75;;;25.90;54.70;;;;;;4420961;32;20085;-69
2022/04/13 12:46:16;;;;;;;0.85;0.85;;;25.80;55.00;;;;;;4432043;32;20073;-69
2022/04/13 12:48:44;;;;;;;1.35;0.90;;;26.00;54.20;;;;;;4429842;32;20133;-69
2022/04/13 12:51:10;;;;;;;0.82;0.60;;;25.60;55.10;;;;;;4431499;32;20122;-69